Terminal Aerodrome Forecast
Issued by NWS

Home | Current Version | Previous Version | Text Only | Print | Product List | Glossary On
Versions: 1 2 3 4 5 6 7 8 9 10 11
569
FTUS46 KSGX 241130
TAFPSP
TAF
KPSP 241130Z 2412/2512 VRB05KT P6SM SCT200
     FM241800 30012KT P6SM SCT200
     FM242100 33015G25KT P6SM SCT200
     FM250000 33025G35KT P6SM SCT200
     FM250800 32015G25KT P6SM SCT200=

USA.gov is the U.S. government's official web portal to all federal, state and local government web resources and services.